sensor_id;sensor_type;location;lat;lon;timestamp;temperature;humidity
74376;HTU21D;62812;55.188;61.302;2023-04-10T00:00:28;5.52;33.95
74376;HTU21D;62812;55.188;61.302;2023-04-10T00:03:04;5.56;34.31
74376;HTU21D;62812;55.188;61.302;2023-04-10T00:05:37;5.54;33.98
74376;HTU21D;62812;55.188;61.302;2023-04-10T00:08:09;5.52;33.67
74376;HTU21D;62812;55.188;61.302;2023-04-10T00:10:41;5.47;34.05
74376;HTU21D;62812;55.188;61.302;2023-04-10T00:13:13;5.40;34.36
74376;HTU21D;62812;55.188;61.302;2023-04-10T00:15:47;5.37;34.47
74376;HTU21D;62812;55.188;61.302;2023-04-10T00:18:19;5.32;34.11
74376;HTU21D;62812;55.188;61.302;2023-04-10T00:20:51;5.33;34.63
74376;HTU21D;62812;55.188;61.302;2023-04-10T00:23:23;5.28;34.34
74376;HTU21D;62812;55.188;61.302;2023-04-10T00:25:56;5.23;34.70
74376;HTU21D;62812;55.188;61.302;2023-04-10T00:28:29;5.21;34.33
74376;HTU21D;62812;55.188;61.302;2023-04-10T00:31:02;5.20;34.55
74376;HTU21D;62812;55.188;61.302;2023-04-10T00:33:37;5.15;35.01
74376;HTU21D;62812;55.188;61.302;2023-04-10T00:36:10;5.08;34.38
74376;HTU21D;62812;55.188;61.302;2023-04-10T00:38:44;5.10;35.01
74376;HTU21D;62812;55.188;61.302;2023-04-10T00:41:17;5.11;34.83
74376;HTU21D;62812;55.188;61.302;2023-04-10T00:46:56;5.15;34.86
74376;HTU21D;62812;55.188;61.302;2023-04-10T00:49:36;5.11;34.72
74376;HTU21D;62812;55.188;61.302;2023-04-10T00:52:08;5.09;34.81
74376;HTU21D;62812;55.188;61.302;2023-04-10T00:54:40;5.02;34.82
74376;HTU21D;62812;55.188;61.302;2023-04-10T00:57:13;4.98;34.83
74376;HTU21D;62812;55.188;61.302;2023-04-10T00:59:45;5.00;35.47
74376;HTU21D;62812;55.188;61.302;2023-04-10T01:02:20;4.96;35.24
74376;HTU21D;62812;55.188;61.302;2023-04-10T01:04:52;5.00;35.28
74376;HTU21D;62812;55.188;61.302;2023-04-10T01:07:34;5.03;35.26
74376;HTU21D;62812;55.188;61.302;2023-04-10T01:10:16;4.98;35.41
74376;HTU21D;62812;55.188;61.302;2023-04-10T01:12:59;4.98;35.56
74376;HTU21D;62812;55.188;61.302;2023-04-10T01:15:41;4.96;35.21
74376;HTU21D;62812;55.188;61.302;2023-04-10T01:18:20;5.00;35.32
74376;HTU21D;62812;55.188;61.302;2023-04-10T01:20:55;5.08;35.49
74376;HTU21D;62812;55.188;61.302;2023-04-10T01:29:29;5.38;34.60
74376;HTU21D;62812;55.188;61.302;2023-04-10T01:41:17;6.09;32.86
74376;HTU21D;62812;55.188;61.302;2023-04-10T01:43:49;6.31;32.86
74376;HTU21D;62812;55.188;61.302;2023-04-10T01:46:26;6.43;32.28
74376;HTU21D;62812;55.188;61.302;2023-04-10T01:48:56;6.63;31.61
74376;HTU21D;62812;55.188;61.302;2023-04-10T01:54:32;7.01;29.96
74376;HTU21D;62812;55.188;61.302;2023-04-10T02:00:19;7.42;28.90
74376;HTU21D;62812;55.188;61.302;2023-04-10T02:06:13;7.92;27.99
74376;HTU21D;62812;55.188;61.302;2023-04-10T02:09:03;8.11;27.91
74376;HTU21D;62812;55.188;61.302;2023-04-10T02:11:40;8.27;27.22
74376;HTU21D;62812;55.188;61.302;2023-04-10T02:17:27;8.80;26.51
74376;HTU21D;62812;55.188;61.302;2023-04-10T02:22:59;9.12;25.67
74376;HTU21D;62812;55.188;61.302;2023-04-10T02:25:34;9.25;26.06
74376;HTU21D;62812;55.188;61.302;2023-04-10T02:28:12;9.52;25.27
74376;HTU21D;62812;55.188;61.302;2023-04-10T02:31:12;9.79;24.85
74376;HTU21D;62812;55.188;61.302;2023-04-10T02:34:13;9.97;24.10
74376;HTU21D;62812;55.188;61.302;2023-04-10T02:37:14;10.40;23.66
74376;HTU21D;62812;55.188;61.302;2023-04-10T02:42:38;10.66;22.96
74376;HTU21D;62812;55.188;61.302;2023-04-10T02:51:43;10.99;22.48
74376;HTU21D;62812;55.188;61.302;2023-04-10T02:54:19;11.11;25.11
74376;HTU21D;62812;55.188;61.302;2023-04-10T03:00:30;11.31;21.47
74376;HTU21D;62812;55.188;61.302;2023-04-10T03:03:13;11.46;21.88
74376;HTU21D;62812;55.188;61.302;2023-04-10T03:09:00;11.49;21.61
74376;HTU21D;62812;55.188;61.302;2023-04-10T03:26:58;12.40;19.89
74376;HTU21D;62812;55.188;61.302;2023-04-10T03:29:25;12.35;20.71
74376;HTU21D;62812;55.188;61.302;2023-04-10T03:34:36;12.63;19.79
74376;HTU21D;62812;55.188;61.302;2023-04-10T03:37:03;12.81;19.35
74376;HTU21D;62812;55.188;61.302;2023-04-10T03:39:33;12.82;19.41
74376;HTU21D;62812;55.188;61.302;2023-04-10T03:42:07;12.87;19.42
74376;HTU21D;62812;55.188;61.302;2023-04-10T03:44:42;12.90;19.25
74376;HTU21D;62812;55.188;61.302;2023-04-10T03:53:14;13.50;19.39
74376;HTU21D;62812;55.188;61.302;2023-04-10T04:18:03;14.18;17.72
74376;HTU21D;62812;55.188;61.302;2023-04-10T04:30:19;14.64;16.45
74376;HTU21D;62812;55.188;61.302;2023-04-10T04:36:31;14.98;19.96
74376;HTU21D;62812;55.188;61.302;2023-04-10T04:39:10;14.87;17.85
74376;HTU21D;62812;55.188;61.302;2023-04-10T04:41:44;15.00;16.22
74376;HTU21D;62812;55.188;61.302;2023-04-10T04:44:17;15.16;16.64
74376;HTU21D;62812;55.188;61.302;2023-04-10T04:46:51;15.39;16.76
74376;HTU21D;62812;55.188;61.302;2023-04-10T04:49:23;15.39;15.97
74376;HTU21D;62812;55.188;61.302;2023-04-10T04:51:59;15.55;18.54
74376;HTU21D;62812;55.188;61.302;2023-04-10T04:54:31;15.52;14.45
74376;HTU21D;62812;55.188;61.302;2023-04-10T04:57:15;15.75;14.95
74376;HTU21D;62812;55.188;61.302;2023-04-10T04:59:48;15.76;13.73
74376;HTU21D;62812;55.188;61.302;2023-04-10T05:02:20;15.70;14.16
74376;HTU21D;62812;55.188;61.302;2023-04-10T05:04:53;15.62;13.66
74376;HTU21D;62812;55.188;61.302;2023-04-10T05:07:28;15.67;13.71
74376;HTU21D;62812;55.188;61.302;2023-04-10T05:10:00;15.77;13.87
74376;HTU21D;62812;55.188;61.302;2023-04-10T05:12:37;15.85;14.24
74376;HTU21D;62812;55.188;61.302;2023-04-10T05:15:15;16.13;14.38
74376;HTU21D;62812;55.188;61.302;2023-04-10T05:17:49;16.04;13.79
74376;HTU21D;62812;55.188;61.302;2023-04-10T05:20:25;15.73;14.37
74376;HTU21D;62812;55.188;61.302;2023-04-10T05:23:01;15.57;14.61
74376;HTU21D;62812;55.188;61.302;2023-04-10T05:25:33;15.63;14.01
74376;HTU21D;62812;55.188;61.302;2023-04-10T05:28:06;15.57;13.64
74376;HTU21D;62812;55.188;61.302;2023-04-10T05:30:41;15.40;15.90
74376;HTU21D;62812;55.188;61.302;2023-04-10T05:33:16;15.40;14.56
74376;HTU21D;62812;55.188;61.302;2023-04-10T05:35:48;15.46;14.37
74376;HTU21D;62812;55.188;61.302;2023-04-10T05:38:26;15.71;16.53
74376;HTU21D;62812;55.188;61.302;2023-04-10T05:40:58;16.11;15.61
74376;HTU21D;62812;55.188;61.302;2023-04-10T05:43:33;15.89;17.18
74376;HTU21D;62812;55.188;61.302;2023-04-10T05:46:05;15.77;13.84
74376;HTU21D;62812;55.188;61.302;2023-04-10T05:48:38;15.51;16.85
74376;HTU21D;62812;55.188;61.302;2023-04-10T05:51:13;15.38;20.69
74376;HTU21D;62812;55.188;61.302;2023-04-10T05:53:49;15.25;15.19
74376;HTU21D;62812;55.188;61.302;2023-04-10T05:56:21;15.16;13.83
74376;HTU21D;62812;55.188;61.302;2023-04-10T05:58:55;15.19;19.93
74376;HTU21D;62812;55.188;61.302;2023-04-10T06:01:32;15.16;19.34
74376;HTU21D;62812;55.188;61.302;2023-04-10T06:04:15;15.19;17.36
74376;HTU21D;62812;55.188;61.302;2023-04-10T06:06:58;15.39;20.20
74376;HTU21D;62812;55.188;61.302;2023-04-10T06:09:39;15.31;15.09
74376;HTU21D;62812;55.188;61.302;2023-04-10T06:12:23;15.21;16.49
74376;HTU21D;62812;55.188;61.302;2023-04-10T06:15:06;15.08;17.78
74376;HTU21D;62812;55.188;61.302;2023-04-10T06:17:50;15.06;13.05
74376;HTU21D;62812;55.188;61.302;2023-04-10T06:20:49;14.98;13.13
74376;HTU21D;62812;55.188;61.302;2023-04-10T06:23:29;14.89;13.33
74376;HTU21D;62812;55.188;61.302;2023-04-10T06:26:05;15.14;24.60
74376;HTU21D;62812;55.188;61.302;2023-04-10T06:28:37;15.59;21.96
74376;HTU21D;62812;55.188;61.302;2023-04-10T06:31:09;16.44;25.48
74376;HTU21D;62812;55.188;61.302;2023-04-10T06:33:42;16.89;24.20
74376;HTU21D;62812;55.188;61.302;2023-04-10T06:36:14;19.22;19.57
74376;HTU21D;62812;55.188;61.302;2023-04-10T06:38:47;19.35;9.08
74376;HTU21D;62812;55.188;61.302;2023-04-10T06:41:21;20.26;17.09
74376;HTU21D;62812;55.188;61.302;2023-04-10T06:43:53;19.85;16.72
74376;HTU21D;62812;55.188;61.302;2023-04-10T06:46:29;21.47;12.42
74376;HTU21D;62812;55.188;61.302;2023-04-10T06:49:09;22.18;13.38
74376;HTU21D;62812;55.188;61.302;2023-04-10T06:55:22;22.40;12.90
74376;HTU21D;62812;55.188;61.302;2023-04-10T06:57:56;22.44;12.32
74376;HTU21D;62812;55.188;61.302;2023-04-10T07:00:30;22.79;11.72
74376;HTU21D;62812;55.188;61.302;2023-04-10T07:03:03;23.06;11.72
74376;HTU21D;62812;55.188;61.302;2023-04-10T07:05:35;22.41;11.87
74376;HTU21D;62812;55.188;61.302;2023-04-10T07:08:07;22.82;10.20
74376;HTU21D;62812;55.188;61.302;2023-04-10T07:10:39;23.61;5.90
74376;HTU21D;62812;55.188;61.302;2023-04-10T07:13:13;22.54;7.40
74376;HTU21D;62812;55.188;61.302;2023-04-10T07:15:45;22.36;10.77
74376;HTU21D;62812;55.188;61.302;2023-04-10T07:18:17;22.77;10.58
74376;HTU21D;62812;55.188;61.302;2023-04-10T07:20:50;23.12;10.59
74376;HTU21D;62812;55.188;61.302;2023-04-10T07:23:22;22.10;11.80
74376;HTU21D;62812;55.188;61.302;2023-04-10T07:25:55;23.15;10.40
74376;HTU21D;62812;55.188;61.302;2023-04-10T07:28:30;23.50;9.64
74376;HTU21D;62812;55.188;61.302;2023-04-10T07:31:04;24.32;8.61
74376;HTU21D;62812;55.188;61.302;2023-04-10T07:33:37;24.65;7.74
74376;HTU21D;62812;55.188;61.302;2023-04-10T07:36:10;24.86;7.57
74376;HTU21D;62812;55.188;61.302;2023-04-10T07:38:46;24.83;7.60
74376;HTU21D;62812;55.188;61.302;2023-04-10T07:41:37;24.66;7.76
74376;HTU21D;62812;55.188;61.302;2023-04-10T07:44:19;24.18;8.19
74376;HTU21D;62812;55.188;61.302;2023-04-10T07:46:55;24.73;7.71
74376;HTU21D;62812;55.188;61.302;2023-04-10T07:49:35;24.93;7.63
74376;HTU21D;62812;55.188;61.302;2023-04-10T07:52:18;24.14;8.25
74376;HTU21D;62812;55.188;61.302;2023-04-10T07:54:57;24.43;7.94
74376;HTU21D;62812;55.188;61.302;2023-04-10T07:57:32;23.57;8.94
74376;HTU21D;62812;55.188;61.302;2023-04-10T08:00:12;22.80;7.46
74376;HTU21D;62812;55.188;61.302;2023-04-10T08:02:44;21.32;10.99
74376;HTU21D;62812;55.188;61.302;2023-04-10T08:05:21;22.61;10.41
74376;HTU21D;62812;55.188;61.302;2023-04-10T08:11:05;20.89;7.04
74376;HTU21D;62812;55.188;61.302;2023-04-10T08:17:04;19.20;12.51
74376;HTU21D;62812;55.188;61.302;2023-04-10T08:22:46;18.52;11.12
74376;HTU21D;62812;55.188;61.302;2023-04-10T08:25:22;17.80;10.36
74376;HTU21D;62812;55.188;61.302;2023-04-10T08:27:58;17.68;14.14
74376;HTU21D;62812;55.188;61.302;2023-04-10T08:30:42;17.68;12.04
74376;HTU21D;62812;55.188;61.302;2023-04-10T08:33:20;17.31;10.85
74376;HTU21D;62812;55.188;61.302;2023-04-10T08:35:54;16.73;9.69
74376;HTU21D;62812;55.188;61.302;2023-04-10T08:38:47;16.57;14.19
74376;HTU21D;62812;55.188;61.302;2023-04-10T08:41:31;16.26;9.73
74376;HTU21D;62812;55.188;61.302;2023-04-10T08:44:05;16.26;15.87
74376;HTU21D;62812;55.188;61.302;2023-04-10T08:46:50;16.44;14.28
74376;HTU21D;62812;55.188;61.302;2023-04-10T08:49:39;16.61;16.61
74376;HTU21D;62812;55.188;61.302;2023-04-10T08:52:14;16.51;18.27
74376;HTU21D;62812;55.188;61.302;2023-04-10T08:54:52;16.59;20.80
74376;HTU21D;62812;55.188;61.302;2023-04-10T08:57:30;16.67;10.60
74376;HTU21D;62812;55.188;61.302;2023-04-10T09:00:06;16.96;17.88
74376;HTU21D;62812;55.188;61.302;2023-04-10T09:02:42;16.71;13.62
74376;HTU21D;62812;55.188;61.302;2023-04-10T09:08:33;16.44;12.97
74376;HTU21D;62812;55.188;61.302;2023-04-10T09:11:09;16.33;19.03
74376;HTU21D;62812;55.188;61.302;2023-04-10T09:13:45;16.27;10.24
74376;HTU21D;62812;55.188;61.302;2023-04-10T09:19:45;15.93;15.90
74376;HTU21D;62812;55.188;61.302;2023-04-10T09:22:20;16.14;16.77
74376;HTU21D;62812;55.188;61.302;2023-04-10T09:25:04;16.58;17.21
74376;HTU21D;62812;55.188;61.302;2023-04-10T09:28:02;19.38;20.47
74376;HTU21D;62812;55.188;61.302;2023-04-10T09:30:38;20.84;18.39
74376;HTU21D;62812;55.188;61.302;2023-04-10T09:33:21;22.16;14.92
74376;HTU21D;62812;55.188;61.302;2023-04-10T09:35:56;22.08;13.91
74376;HTU21D;62812;55.188;61.302;2023-04-10T09:38:30;21.70;7.12
74376;HTU21D;62812;55.188;61.302;2023-04-10T09:41:09;21.55;13.25
74376;HTU21D;62812;55.188;61.302;2023-04-10T09:43:45;22.88;11.30
74376;HTU21D;62812;55.188;61.302;2023-04-10T09:46:45;23.59;10.17
74376;HTU21D;62812;55.188;61.302;2023-04-10T09:49:21;23.73;9.52
74376;HTU21D;62812;55.188;61.302;2023-04-10T09:51:58;23.88;8.95
74376;HTU21D;62812;55.188;61.302;2023-04-10T10:07:42;23.30;9.69
74376;HTU21D;62812;55.188;61.302;2023-04-10T10:10:16;24.48;7.85
74376;HTU21D;62812;55.188;61.302;2023-04-10T10:16:12;24.53;6.89
74376;HTU21D;62812;55.188;61.302;2023-04-10T10:22:03;24.48;2.87
74376;HTU21D;62812;55.188;61.302;2023-04-10T10:28:04;22.56;9.48
74376;HTU21D;62812;55.188;61.302;2023-04-10T10:30:38;24.02;8.23
74376;HTU21D;62812;55.188;61.302;2023-04-10T10:33:11;25.01;6.47
74376;HTU21D;62812;55.188;61.302;2023-04-10T10:35:45;24.45;6.49
74376;HTU21D;62812;55.188;61.302;2023-04-10T10:38:17;24.89;6.32
74376;HTU21D;62812;55.188;61.302;2023-04-10T10:40:56;25.07;2.93
74376;HTU21D;62812;55.188;61.302;2023-04-10T10:46:39;22.22;3.68
74376;HTU21D;62812;55.188;61.302;2023-04-10T10:49:11;21.92;5.29
74376;HTU21D;62812;55.188;61.302;2023-04-10T10:51:46;22.29;9.35
74376;HTU21D;62812;55.188;61.302;2023-04-10T10:54:31;23.81;8.17
74376;HTU21D;62812;55.188;61.302;2023-04-10T10:57:03;23.77;3.81
74376;HTU21D;62812;55.188;61.302;2023-04-10T10:59:56;23.66;7.42
74376;HTU21D;62812;55.188;61.302;2023-04-10T11:02:35;24.27;7.73
74376;HTU21D;62812;55.188;61.302;2023-04-10T11:05:08;24.41;7.58
74376;HTU21D;62812;55.188;61.302;2023-04-10T11:08:08;24.64;7.07
74376;HTU21D;62812;55.188;61.302;2023-04-10T11:11:01;24.39;7.16
74376;HTU21D;62812;55.188;61.302;2023-04-10T11:13:39;24.19;7.37
74376;HTU21D;62812;55.188;61.302;2023-04-10T11:16:14;24.95;8.31
74376;HTU21D;62812;55.188;61.302;2023-04-10T11:19:20;23.89;7.68
74376;HTU21D;62812;55.188;61.302;2023-04-10T11:22:06;24.30;10.55
74376;HTU21D;62812;55.188;61.302;2023-04-10T11:27:51;23.17;10.21
74376;HTU21D;62812;55.188;61.302;2023-04-10T11:30:34;21.99;6.83
74376;HTU21D;62812;55.188;61.302;2023-04-10T11:33:25;23.28;10.86
74376;HTU21D;62812;55.188;61.302;2023-04-10T11:39:14;24.46;9.50
74376;HTU21D;62812;55.188;61.302;2023-04-10T11:41:53;24.82;9.66
74376;HTU21D;62812;55.188;61.302;2023-04-10T11:44:30;25.36;7.60
74376;HTU21D;62812;55.188;61.302;2023-04-10T11:47:02;24.95;7.45
74376;HTU21D;62812;55.188;61.302;2023-04-10T11:52:52;24.58;7.18
74376;HTU21D;62812;55.188;61.302;2023-04-10T11:55:37;25.10;7.08
74376;HTU21D;62812;55.188;61.302;2023-04-10T11:58:22;25.52;6.47
74376;HTU21D;62812;55.188;61.302;2023-04-10T12:00:56;25.37;6.12
74376;HTU21D;62812;55.188;61.302;2023-04-10T12:03:49;23.80;6.71
74376;HTU21D;62812;55.188;61.302;2023-04-10T12:06:25;23.65;8.02
74376;HTU21D;62812;55.188;61.302;2023-04-10T12:08:59;24.35;7.21
74376;HTU21D;62812;55.188;61.302;2023-04-10T12:12:18;25.10;6.41
74376;HTU21D;62812;55.188;61.302;2023-04-10T12:14:46;25.01;6.44
74376;HTU21D;62812;55.188;61.302;2023-04-10T12:17:15;25.34;5.90
74376;HTU21D;62812;55.188;61.302;2023-04-10T12:19:42;25.43;5.77
74376;HTU21D;62812;55.188;61.302;2023-04-10T12:22:10;25.19;6.04
74376;HTU21D;62812;55.188;61.302;2023-04-10T12:30:51;24.60;6.80
74376;HTU21D;62812;55.188;61.302;2023-04-10T12:33:22;25.10;6.21
74376;HTU21D;62812;55.188;61.302;2023-04-10T12:35:49;25.38;5.79
74376;HTU21D;62812;55.188;61.302;2023-04-10T12:38:35;24.47;3.18
74376;HTU21D;62812;55.188;61.302;2023-04-10T12:44:08;23.28;7.89
74376;HTU21D;62812;55.188;61.302;2023-04-10T12:46:39;24.20;7.07
74376;HTU21D;62812;55.188;61.302;2023-04-10T12:49:13;22.84;5.49
74376;HTU21D;62812;55.188;61.302;2023-04-10T12:51:47;21.17;8.39
74376;HTU21D;62812;55.188;61.302;2023-04-10T12:54:28;19.87;8.44
74376;HTU21D;62812;55.188;61.302;2023-04-10T12:59:58;18.08;10.12
74376;HTU21D;62812;55.188;61.302;2023-04-10T13:05:58;17.21;14.19
74376;HTU21D;62812;55.188;61.302;2023-04-10T13:24:34;15.90;15.33
74376;HTU21D;62812;55.188;61.302;2023-04-10T13:27:10;16.02;15.27
74376;HTU21D;62812;55.188;61.302;2023-04-10T13:29:42;15.92;14.85
74376;HTU21D;62812;55.188;61.302;2023-04-10T13:32:10;15.82;13.07
74376;HTU21D;62812;55.188;61.302;2023-04-10T13:38:02;15.83;16.19
74376;HTU21D;62812;55.188;61.302;2023-04-10T13:40:48;15.69;14.81
74376;HTU21D;62812;55.188;61.302;2023-04-10T13:43:20;15.62;14.39
74376;HTU21D;62812;55.188;61.302;2023-04-10T13:51:59;15.27;17.19
74376;HTU21D;62812;55.188;61.302;2023-04-10T13:55:08;15.21;17.57
74376;HTU21D;62812;55.188;61.302;2023-04-10T13:57:45;15.02;16.29
74376;HTU21D;62812;55.188;61.302;2023-04-10T14:00:18;15.13;17.37
74376;HTU21D;62812;55.188;61.302;2023-04-10T14:02:51;15.07;17.80
74376;HTU21D;62812;55.188;61.302;2023-04-10T14:05:24;14.99;19.00
74376;HTU21D;62812;55.188;61.302;2023-04-10T14:08:00;14.93;16.62
74376;HTU21D;62812;55.188;61.302;2023-04-10T14:10:35;14.73;19.79
74376;HTU21D;62812;55.188;61.302;2023-04-10T14:13:09;14.68;18.73
74376;HTU21D;62812;55.188;61.302;2023-04-10T14:15:46;14.72;19.09
74376;HTU21D;62812;55.188;61.302;2023-04-10T14:18:20;14.59;18.61
74376;HTU21D;62812;55.188;61.302;2023-04-10T14:20:56;14.42;18.82
74376;HTU21D;62812;55.188;61.302;2023-04-10T14:23:46;14.41;19.47
74376;HTU21D;62812;55.188;61.302;2023-04-10T14:26:27;14.59;19.64
74376;HTU21D;62812;55.188;61.302;2023-04-10T14:36:35;14.43;20.05
74376;HTU21D;62812;55.188;61.302;2023-04-10T14:39:03;14.45;19.41
74376;HTU21D;62812;55.188;61.302;2023-04-10T14:41:32;14.47;19.86
74376;HTU21D;62812;55.188;61.302;2023-04-10T14:44:01;14.43;20.62
74376;HTU21D;62812;55.188;61.302;2023-04-10T14:46:31;14.41;19.81
74376;HTU21D;62812;55.188;61.302;2023-04-10T14:49:03;14.25;20.21
74376;HTU21D;62812;55.188;61.302;2023-04-10T14:51:44;14.09;21.20
74376;HTU21D;62812;55.188;61.302;2023-04-10T14:54:32;14.08;21.33
74376;HTU21D;62812;55.188;61.302;2023-04-10T14:57:02;14.04;21.21
74376;HTU21D;62812;55.188;61.302;2023-04-10T17:10:51;6.48;38.42
74376;HTU21D;62812;55.188;61.302;2023-04-10T17:13:25;6.43;37.16
74376;HTU21D;62812;55.188;61.302;2023-04-10T17:15:53;6.39;38.78
74376;HTU21D;62812;55.188;61.302;2023-04-10T17:18:22;6.26;39.04
74376;HTU21D;62812;55.188;61.302;2023-04-10T17:20:49;6.19;37.97
74376;HTU21D;62812;55.188;61.302;2023-04-10T17:23:19;6.09;39.33
74376;HTU21D;62812;55.188;61.302;2023-04-10T17:25:50;5.99;39.45
74376;HTU21D;62812;55.188;61.302;2023-04-10T17:28:25;5.92;39.61
74376;HTU21D;62812;55.188;61.302;2023-04-10T17:31:01;5.91;39.79
74376;HTU21D;62812;55.188;61.302;2023-04-10T17:33:36;5.94;38.04
74376;HTU21D;62812;55.188;61.302;2023-04-10T17:36:15;5.98;39.50
74376;HTU21D;62812;55.188;61.302;2023-04-10T17:38:44;5.93;39.71
74376;HTU21D;62812;55.188;61.302;2023-04-10T17:41:19;5.91;39.81
74376;HTU21D;62812;55.188;61.302;2023-04-10T17:43:51;5.84;40.04
74376;HTU21D;62812;55.188;61.302;2023-04-10T17:46:19;5.85;38.43
74376;HTU21D;62812;55.188;61.302;2023-04-10T17:49:00;5.92;39.62
74376;HTU21D;62812;55.188;61.302;2023-04-10T17:51:27;5.86;39.19
74376;HTU21D;62812;55.188;61.302;2023-04-10T17:53:56;5.85;39.25
74376;HTU21D;62812;55.188;61.302;2023-04-10T17:56:33;5.77;39.72
74376;HTU21D;62812;55.188;61.302;2023-04-10T17:59:06;5.72;39.75
74376;HTU21D;62812;55.188;61.302;2023-04-10T18:01:34;5.68;39.71
74376;HTU21D;62812;55.188;61.302;2023-04-10T18:04:03;5.67;39.31
74376;HTU21D;62812;55.188;61.302;2023-04-10T18:06:33;5.64;40.03
74376;HTU21D;62812;55.188;61.302;2023-04-10T18:09:00;5.62;38.41
74376;HTU21D;62812;55.188;61.302;2023-04-10T18:11:29;5.60;40.19
74376;HTU21D;62812;55.188;61.302;2023-04-10T18:14:02;5.50;39.84
74376;HTU21D;62812;55.188;61.302;2023-04-10T18:16:30;5.49;40.77
74376;HTU21D;62812;55.188;61.302;2023-04-10T18:18:59;5.46;40.67
74376;HTU21D;62812;55.188;61.302;2023-04-10T18:21:28;5.39;40.75
74376;HTU21D;62812;55.188;61.302;2023-04-10T18:23:59;5.35;40.85
74376;HTU21D;62812;55.188;61.302;2023-04-10T18:26:29;5.27;41.06
74376;HTU21D;62812;55.188;61.302;2023-04-10T18:28:59;5.25;41.10
74376;HTU21D;62812;55.188;61.302;2023-04-10T18:31:27;5.23;41.16
74376;HTU21D;62812;55.188;61.302;2023-04-10T18:33:59;5.24;40.82
74376;HTU21D;62812;55.188;61.302;2023-04-10T18:36:28;5.16;41.20
74376;HTU21D;62812;55.188;61.302;2023-04-10T18:39:12;5.20;41.12
74376;HTU21D;62812;55.188;61.302;2023-04-10T18:42:09;5.17;41.29
74376;HTU21D;62812;55.188;61.302;2023-04-10T18:44:37;5.19;40.93
74376;HTU21D;62812;55.188;61.302;2023-04-10T18:47:08;5.13;40.84
74376;HTU21D;62812;55.188;61.302;2023-04-10T18:49:36;5.11;39.81
74376;HTU21D;62812;55.188;61.302;2023-04-10T18:52:03;5.11;41.03
74376;HTU21D;62812;55.188;61.302;2023-04-10T18:54:30;5.15;40.57
74376;HTU21D;62812;55.188;61.302;2023-04-10T18:56:57;5.11;40.96
74376;HTU21D;62812;55.188;61.302;2023-04-10T18:59:36;5.10;40.97
74376;HTU21D;62812;55.188;61.302;2023-04-10T19:02:02;5.09;41.01
74376;HTU21D;62812;55.188;61.302;2023-04-10T19:04:29;5.06;41.15
74376;HTU21D;62812;55.188;61.302;2023-04-10T19:06:58;5.03;41.32
74376;HTU21D;62812;55.188;61.302;2023-04-10T19:09:25;5.02;41.40
74376;HTU21D;62812;55.188;61.302;2023-04-10T19:11:51;4.97;41.68
74376;HTU21D;62812;55.188;61.302;2023-04-10T19:14:19;4.95;40.97
74376;HTU21D;62812;55.188;61.302;2023-04-10T19:16:47;4.84;42.28
74376;HTU21D;62812;55.188;61.302;2023-04-10T19:19:14;4.72;42.56
74376;HTU21D;62812;55.188;61.302;2023-04-10T19:21:40;4.63;42.96
74376;HTU21D;62812;55.188;61.302;2023-04-10T19:24:07;4.51;43.37
74376;HTU21D;62812;55.188;61.302;2023-04-10T19:26:33;4.41;43.84
74376;HTU21D;62812;55.188;61.302;2023-04-10T19:29:00;4.30;43.74
74376;HTU21D;62812;55.188;61.302;2023-04-10T19:31:27;4.27;44.20
74376;HTU21D;62812;55.188;61.302;2023-04-10T19:33:56;4.19;45.09
74376;HTU21D;62812;55.188;61.302;2023-04-10T19:36:24;4.13;45.47
74376;HTU21D;62812;55.188;61.302;2023-04-10T19:38:52;4.08;45.70
74376;HTU21D;62812;55.188;61.302;2023-04-10T19:41:19;4.07;45.82
74376;HTU21D;62812;55.188;61.302;2023-04-10T19:43:45;4.03;46.20
74376;HTU21D;62812;55.188;61.302;2023-04-10T19:46:15;3.94;46.29
74376;HTU21D;62812;55.188;61.302;2023-04-10T19:48:42;3.86;46.42
74376;HTU21D;62812;55.188;61.302;2023-04-10T19:51:11;3.82;47.02
74376;HTU21D;62812;55.188;61.302;2023-04-10T19:53:38;3.79;47.34
74376;HTU21D;62812;55.188;61.302;2023-04-10T19:56:05;3.79;47.22
74376;HTU21D;62812;55.188;61.302;2023-04-10T19:58:37;3.70;47.61
74376;HTU21D;62812;55.188;61.302;2023-04-10T20:01:04;3.65;47.83
74376;HTU21D;62812;55.188;61.302;2023-04-10T20:03:31;3.56;47.47
74376;HTU21D;62812;55.188;61.302;2023-04-10T20:05:59;3.56;47.96
74376;HTU21D;62812;55.188;61.302;2023-04-10T20:08:27;3.50;48.53
74376;HTU21D;62812;55.188;61.302;2023-04-10T20:10:54;3.54;48.75
74376;HTU21D;62812;55.188;61.302;2023-04-10T20:13:21;3.49;49.18
74376;HTU21D;62812;55.188;61.302;2023-04-10T20:15:48;3.43;49.00
74376;HTU21D;62812;55.188;61.302;2023-04-10T20:18:15;3.41;49.07
74376;HTU21D;62812;55.188;61.302;2023-04-10T20:20:42;3.32;48.73
74376;HTU21D;62812;55.188;61.302;2023-04-10T20:23:08;3.32;49.42
74376;HTU21D;62812;55.188;61.302;2023-04-10T20:25:37;3.29;49.48
74376;HTU21D;62812;55.188;61.302;2023-04-10T20:28:03;3.28;49.73
74376;HTU21D;62812;55.188;61.302;2023-04-10T20:30:30;3.27;49.89
74376;HTU21D;62812;55.188;61.302;2023-04-10T20:32:57;3.38;48.02
74376;HTU21D;62812;55.188;61.302;2023-04-10T20:35:24;3.29;49.85
74376;HTU21D;62812;55.188;61.302;2023-04-10T20:37:51;3.27;49.69
74376;HTU21D;62812;55.188;61.302;2023-04-10T20:40:18;3.32;49.98
74376;HTU21D;62812;55.188;61.302;2023-04-10T20:42:46;3.32;47.83
74376;HTU21D;62812;55.188;61.302;2023-04-10T20:45:13;3.33;49.87
74376;HTU21D;62812;55.188;61.302;2023-04-10T20:47:40;3.28;49.48
74376;HTU21D;62812;55.188;61.302;2023-04-10T20:50:08;3.20;49.83
74376;HTU21D;62812;55.188;61.302;2023-04-10T20:52:34;3.21;49.96
74376;HTU21D;62812;55.188;61.302;2023-04-10T20:55:01;3.24;50.02
74376;HTU21D;62812;55.188;61.302;2023-04-10T20:57:28;3.23;48.67
74376;HTU21D;62812;55.188;61.302;2023-04-10T20:59:57;3.21;49.93
74376;HTU21D;62812;55.188;61.302;2023-04-10T21:02:23;3.19;49.66
74376;HTU21D;62812;55.188;61.302;2023-04-10T21:04:50;3.19;48.27
74376;HTU21D;62812;55.188;61.302;2023-04-10T21:07:17;3.15;50.03
74376;HTU21D;62812;55.188;61.302;2023-04-10T21:09:44;3.11;49.80
74376;HTU21D;62812;55.188;61.302;2023-04-10T21:12:10;3.08;50.11
74376;HTU21D;62812;55.188;61.302;2023-04-10T21:14:37;3.01;49.64
74376;HTU21D;62812;55.188;61.302;2023-04-10T21:17:05;3.02;50.11
74376;HTU21D;62812;55.188;61.302;2023-04-10T21:19:32;2.95;49.66
74376;HTU21D;62812;55.188;61.302;2023-04-10T21:21:59;2.88;49.63
74376;HTU21D;62812;55.188;61.302;2023-04-10T21:24:26;2.88;50.33
74376;HTU21D;62812;55.188;61.302;2023-04-10T21:26:53;2.83;50.26
74376;HTU21D;62812;55.188;61.302;2023-04-10T21:29:20;2.81;50.80
74376;HTU21D;62812;55.188;61.302;2023-04-10T21:31:46;2.70;51.12
74376;HTU21D;62812;55.188;61.302;2023-04-10T21:34:14;2.70;50.95
74376;HTU21D;62812;55.188;61.302;2023-04-10T21:36:41;2.68;49.50
74376;HTU21D;62812;55.188;61.302;2023-04-10T21:39:07;2.65;51.05